sensor_id;sensor_type;location;lat;lon;timestamp;pressure;altitude;pressure_sealevel;temperature;humidity
48424;BME280;34232;42.502;26.014;2023-04-24T00:02:06;100020.75;;;11.21;66.82
48424;BME280;34232;42.502;26.014;2023-04-24T00:04:34;100014.66;;;11.20;66.63
48424;BME280;34232;42.502;26.014;2023-04-24T00:07:00;100014.47;;;11.12;66.81
48424;BME280;34232;42.502;26.014;2023-04-24T00:09:25;100008.22;;;11.04;67.41
48424;BME280;34232;42.502;26.014;2023-04-24T00:11:54;100010.97;;;11.02;67.72
48424;BME280;34232;42.502;26.014;2023-04-24T00:14:19;100008.47;;;11.01;67.72
48424;BME280;34232;42.502;26.014;2023-04-24T00:16:44;99999.28;;;10.95;67.99
48424;BME280;34232;42.502;26.014;2023-04-24T00:19:10;100001.19;;;10.93;67.95
48424;BME280;34232;42.502;26.014;2023-04-24T00:21:38;100006.72;;;10.90;68.36
48424;BME280;34232;42.502;26.014;2023-04-24T00:24:03;100010.03;;;10.82;68.79
48424;BME280;34232;42.502;26.014;2023-04-24T00:26:28;100008.47;;;10.80;69.07
48424;BME280;34232;42.502;26.014;2023-04-24T00:28:54;100006.34;;;10.74;69.83
48424;BME280;34232;42.502;26.014;2023-04-24T00:31:19;100005.38;;;10.75;69.19
48424;BME280;34232;42.502;26.014;2023-04-24T00:33:44;100007.13;;;10.65;69.36
48424;BME280;34232;42.502;26.014;2023-04-24T00:36:10;100003.66;;;10.64;69.39
48424;BME280;34232;42.502;26.014;2023-04-24T00:38:35;100002.22;;;10.60;69.60
48424;BME280;34232;42.502;26.014;2023-04-24T00:41:00;99991.69;;;10.60;69.72
48424;BME280;34232;42.502;26.014;2023-04-24T00:43:25;99987.41;;;10.59;69.11
48424;BME280;34232;42.502;26.014;2023-04-24T00:45:51;99990.88;;;10.60;69.37
48424;BME280;34232;42.502;26.014;2023-04-24T00:48:16;99987.94;;;10.53;69.28
48424;BME280;34232;42.502;26.014;2023-04-24T00:50:41;99987.09;;;10.52;69.78
48424;BME280;34232;42.502;26.014;2023-04-24T00:53:07;99988.06;;;10.51;69.76
48424;BME280;34232;42.502;26.014;2023-04-24T00:55:32;99979.69;;;10.46;70.06
48424;BME280;34232;42.502;26.014;2023-04-24T00:57:58;99980.06;;;10.42;70.68
48424;BME280;34232;42.502;26.014;2023-04-24T01:00:23;99980.66;;;10.45;70.33
48424;BME280;34232;42.502;26.014;2023-04-24T01:02:49;99980.91;;;10.42;70.62
48424;BME280;34232;42.502;26.014;2023-04-24T01:05:14;99982.56;;;10.43;71.09
48424;BME280;34232;42.502;26.014;2023-04-24T01:07:40;99978.75;;;10.47;70.49
48424;BME280;34232;42.502;26.014;2023-04-24T01:10:09;99975.97;;;10.49;70.27
48424;BME280;34232;42.502;26.014;2023-04-24T01:12:34;99973.22;;;10.50;69.91
48424;BME280;34232;42.502;26.014;2023-04-24T01:14:59;99979.44;;;10.49;69.91
48424;BME280;34232;42.502;26.014;2023-04-24T01:17:25;99972.75;;;10.45;69.75
48424;BME280;34232;42.502;26.014;2023-04-24T01:19:50;99973.47;;;10.47;69.54
48424;BME280;34232;42.502;26.014;2023-04-24T01:22:18;99970.97;;;10.46;69.87
48424;BME280;34232;42.502;26.014;2023-04-24T01:24:45;99966.91;;;10.21;70.71
48424;BME280;34232;42.502;26.014;2023-04-24T01:27:11;99967.16;;;10.07;71.50
48424;BME280;34232;42.502;26.014;2023-04-24T01:29:37;99969.25;;;10.24;71.12
48424;BME280;34232;42.502;26.014;2023-04-24T01:32:02;99967.56;;;10.34;70.57
48424;BME280;34232;42.502;26.014;2023-04-24T01:34:28;99960.38;;;10.36;70.22
48424;BME280;34232;42.502;26.014;2023-04-24T01:36:53;99970.31;;;10.33;70.43
48424;BME280;34232;42.502;26.014;2023-04-24T01:39:19;99964.72;;;10.26;70.56
48424;BME280;34232;42.502;26.014;2023-04-24T01:41:45;99947.78;;;10.19;70.90
48424;BME280;34232;42.502;26.014;2023-04-24T01:44:10;99955.41;;;10.11;71.00
48424;BME280;34232;42.502;26.014;2023-04-24T01:46:36;99952.34;;;10.06;70.79
48424;BME280;34232;42.502;26.014;2023-04-24T01:49:01;99952.84;;;10.00;71.20
48424;BME280;34232;42.502;26.014;2023-04-24T01:51:26;99956.69;;;9.96;72.12
48424;BME280;34232;42.502;26.014;2023-04-24T01:53:52;99961.94;;;9.96;72.30
48424;BME280;34232;42.502;26.014;2023-04-24T01:56:18;99963.13;;;10.03;72.59
48424;BME280;34232;42.502;26.014;2023-04-24T01:58:45;99962.59;;;10.09;72.37
48424;BME280;34232;42.502;26.014;2023-04-24T02:01:14;99956.25;;;10.11;72.42
48424;BME280;34232;42.502;26.014;2023-04-24T02:03:40;99955.19;;;10.14;72.17
48424;BME280;34232;42.502;26.014;2023-04-24T02:06:05;99957.69;;;10.15;72.20
48424;BME280;34232;42.502;26.014;2023-04-24T02:08:30;99955.78;;;10.17;70.84
48424;BME280;34232;42.502;26.014;2023-04-24T02:10:56;99952.53;;;10.14;70.51
48424;BME280;34232;42.502;26.014;2023-04-24T02:13:21;99949.72;;;10.06;70.83
48424;BME280;34232;42.502;26.014;2023-04-24T02:15:46;99948.91;;;9.94;70.66
48424;BME280;34232;42.502;26.014;2023-04-24T02:18:11;99943.34;;;9.88;70.99
48424;BME280;34232;42.502;26.014;2023-04-24T02:20:37;99944.06;;;9.78;71.16
48424;BME280;34232;42.502;26.014;2023-04-24T02:23:03;99944.81;;;9.69;71.34
48424;BME280;34232;42.502;26.014;2023-04-24T02:25:28;99940.88;;;9.64;71.95
48424;BME280;34232;42.502;26.014;2023-04-24T02:27:53;99938.88;;;9.56;71.87
48424;BME280;34232;42.502;26.014;2023-04-24T02:30:18;99937.22;;;9.55;72.13
48424;BME280;34232;42.502;26.014;2023-04-24T02:32:44;99945.34;;;9.41;72.55
48424;BME280;34232;42.502;26.014;2023-04-24T02:35:10;99943.09;;;9.36;73.19
48424;BME280;34232;42.502;26.014;2023-04-24T02:37:35;99940.78;;;9.43;72.80
48424;BME280;34232;42.502;26.014;2023-04-24T02:40:00;99933.50;;;9.46;72.65
48424;BME280;34232;42.502;26.014;2023-04-24T02:42:26;99934.09;;;9.50;72.55
48424;BME280;34232;42.502;26.014;2023-04-24T02:44:51;99936.00;;;9.48;72.79
48424;BME280;34232;42.502;26.014;2023-04-24T02:47:16;99929.09;;;9.47;73.08
48424;BME280;34232;42.502;26.014;2023-04-24T02:49:41;99932.66;;;9.46;73.02
48424;BME280;34232;42.502;26.014;2023-04-24T02:52:07;99931.00;;;9.45;72.33
48424;BME280;34232;42.502;26.014;2023-04-24T02:54:32;99931.00;;;9.45;72.07
48424;BME280;34232;42.502;26.014;2023-04-24T02:56:57;99941.50;;;9.45;72.15
48424;BME280;34232;42.502;26.014;2023-04-24T02:59:22;99934.56;;;9.44;71.84
48424;BME280;34232;42.502;26.014;2023-04-24T03:01:48;99929.59;;;9.41;71.62
48424;BME280;34232;42.502;26.014;2023-04-24T03:04:13;99930.31;;;9.32;71.69
48424;BME280;34232;42.502;26.014;2023-04-24T03:06:38;99939.41;;;9.17;71.92
48424;BME280;34232;42.502;26.014;2023-04-24T03:09:04;99932.25;;;9.07;71.91
48424;BME280;34232;42.502;26.014;2023-04-24T03:11:29;99939.28;;;8.96;71.42
48424;BME280;34232;42.502;26.014;2023-04-24T03:13:55;99943.09;;;8.92;71.54
48424;BME280;34232;42.502;26.014;2023-04-24T03:16:20;99951.34;;;8.87;72.13
48424;BME280;34232;42.502;26.014;2023-04-24T03:18:45;99946.31;;;8.84;72.54
48424;BME280;34232;42.502;26.014;2023-04-24T03:21:11;99940.69;;;8.77;72.46
48424;BME280;34232;42.502;26.014;2023-04-24T03:23:36;99942.25;;;8.69;72.77
48424;BME280;34232;42.502;26.014;2023-04-24T03:26:01;99944.13;;;8.67;73.39
48424;BME280;34232;42.502;26.014;2023-04-24T03:28:27;99944.59;;;8.61;73.75
48424;BME280;34232;42.502;26.014;2023-04-24T03:30:52;99939.84;;;8.55;74.08
48424;BME280;34232;42.502;26.014;2023-04-24T03:33:17;99946.03;;;8.54;74.06
48424;BME280;34232;42.502;26.014;2023-04-24T03:35:43;99947.94;;;8.52;73.52
48424;BME280;34232;42.502;26.014;2023-04-24T03:38:08;99948.88;;;8.51;74.00
48424;BME280;34232;42.502;26.014;2023-04-24T03:40:33;99952.44;;;8.50;74.49
48424;BME280;34232;42.502;26.014;2023-04-24T03:42:58;99951.94;;;8.45;74.67
48424;BME280;34232;42.502;26.014;2023-04-24T03:45:24;99950.78;;;8.49;75.10
48424;BME280;34232;42.502;26.014;2023-04-24T03:47:49;99953.28;;;8.50;74.54
48424;BME280;34232;42.502;26.014;2023-04-24T03:50:15;99957.25;;;8.56;74.52
48424;BME280;34232;42.502;26.014;2023-04-24T03:52:40;99953.19;;;8.63;74.88
48424;BME280;34232;42.502;26.014;2023-04-24T03:55:06;99962.41;;;8.68;74.65
48424;BME280;34232;42.502;26.014;2023-04-24T03:57:31;99966.34;;;8.74;74.69
48424;BME280;34232;42.502;26.014;2023-04-24T03:59:56;99971.13;;;8.80;75.00
48424;BME280;34232;42.502;26.014;2023-04-24T04:02:22;99967.06;;;8.87;74.49
48424;BME280;34232;42.502;26.014;2023-04-24T04:04:47;99960.66;;;8.91;74.03
48424;BME280;34232;42.502;26.014;2023-04-24T04:07:12;99967.81;;;9.00;73.85
48424;BME280;34232;42.502;26.014;2023-04-24T04:09:38;99971.16;;;9.02;74.21
48424;BME280;34232;42.502;26.014;2023-04-24T04:12:03;99968.75;;;9.10;74.37
48424;BME280;34232;42.502;26.014;2023-04-24T04:14:28;99963.16;;;9.15;73.80
48424;BME280;34232;42.502;26.014;2023-04-24T04:16:54;99975.94;;;9.20;74.47
48424;BME280;34232;42.502;26.014;2023-04-24T04:19:19;99978.91;;;9.26;74.90
48424;BME280;34232;42.502;26.014;2023-04-24T04:21:44;99985.13;;;9.36;75.02
48424;BME280;34232;42.502;26.014;2023-04-24T04:24:10;99978.28;;;9.45;75.00
48424;BME280;34232;42.502;26.014;2023-04-24T04:26:36;99974.00;;;9.55;75.26
48424;BME280;34232;42.502;26.014;2023-04-24T04:29:02;99976.59;;;9.66;75.35
48424;BME280;34232;42.502;26.014;2023-04-24T04:31:28;99965.59;;;9.72;75.29
48424;BME280;34232;42.502;26.014;2023-04-24T04:33:54;99966.53;;;9.82;75.81
48424;BME280;34232;42.502;26.014;2023-04-24T04:36:19;99970.53;;;9.98;76.21
48424;BME280;34232;42.502;26.014;2023-04-24T04:38:44;99973.97;;;10.09;76.06
48424;BME280;34232;42.502;26.014;2023-04-24T04:41:10;99969.97;;;10.26;75.42
48424;BME280;34232;42.502;26.014;2023-04-24T04:43:35;99968.00;;;10.39;75.36
48424;BME280;34232;42.502;26.014;2023-04-24T04:46:01;99968.59;;;10.64;74.37
48424;BME280;34232;42.502;26.014;2023-04-24T04:48:28;99972.69;;;10.77;73.38
48424;BME280;34232;42.502;26.014;2023-04-24T04:50:53;99978.59;;;10.91;72.81
48424;BME280;34232;42.502;26.014;2023-04-24T04:53:19;99984.88;;;10.99;72.18
48424;BME280;34232;42.502;26.014;2023-04-24T04:55:44;99987.75;;;11.17;71.83
48424;BME280;34232;42.502;26.014;2023-04-24T04:58:10;99983.88;;;11.21;71.40
48424;BME280;34232;42.502;26.014;2023-04-24T05:00:35;99976.47;;;11.36;71.05
48424;BME280;34232;42.502;26.014;2023-04-24T05:03:02;99972.63;;;11.49;71.04
48424;BME280;34232;42.502;26.014;2023-04-24T05:05:28;99974.84;;;11.54;71.38
48424;BME280;34232;42.502;26.014;2023-04-24T05:07:53;99970.16;;;11.67;70.39
48424;BME280;34232;42.502;26.014;2023-04-24T05:10:18;99961.28;;;11.68;70.08
48424;BME280;34232;42.502;26.014;2023-04-24T05:12:44;99961.00;;;11.71;69.48
48424;BME280;34232;42.502;26.014;2023-04-24T05:15:09;99967.44;;;11.78;69.42
48424;BME280;34232;42.502;26.014;2023-04-24T05:17:35;99967.19;;;11.91;70.04
48424;BME280;34232;42.502;26.014;2023-04-24T05:20:00;99968.56;;;12.05;68.55
48424;BME280;34232;42.502;26.014;2023-04-24T05:22:25;99970.38;;;12.23;68.08
48424;BME280;34232;42.502;26.014;2023-04-24T05:24:51;99965.66;;;12.46;68.09
48424;BME280;34232;42.502;26.014;2023-04-24T05:27:16;99964.66;;;12.67;68.51
48424;BME280;34232;42.502;26.014;2023-04-24T05:29:41;99961.00;;;12.87;66.63
48424;BME280;34232;42.502;26.014;2023-04-24T05:32:06;99971.22;;;13.09;67.18
48424;BME280;34232;42.502;26.014;2023-04-24T05:34:32;99968.13;;;13.23;64.98
48424;BME280;34232;42.502;26.014;2023-04-24T05:36:57;99963.63;;;13.34;64.05
48424;BME280;34232;42.502;26.014;2023-04-24T05:39:22;99968.34;;;13.40;63.78
48424;BME280;34232;42.502;26.014;2023-04-24T05:41:49;99968.25;;;13.59;65.22
48424;BME280;34232;42.502;26.014;2023-04-24T05:44:15;99977.66;;;13.71;61.75
48424;BME280;34232;42.502;26.014;2023-04-24T05:46:40;99983.94;;;13.88;61.44
48424;BME280;34232;42.502;26.014;2023-04-24T05:49:08;99978.69;;;14.06;61.43
48424;BME280;34232;42.502;26.014;2023-04-24T05:51:33;99981.63;;;14.38;61.33
48424;BME280;34232;42.502;26.014;2023-04-24T05:53:58;99981.00;;;14.62;59.93
48424;BME280;34232;42.502;26.014;2023-04-24T05:56:23;99977.66;;;14.78;59.78
48424;BME280;34232;42.502;26.014;2023-04-24T05:58:49;99974.38;;;14.84;58.13
48424;BME280;34232;42.502;26.014;2023-04-24T06:01:14;99969.75;;;14.86;58.69
48424;BME280;34232;42.502;26.014;2023-04-24T06:03:40;99963.31;;;14.88;57.30
48424;BME280;34232;42.502;26.014;2023-04-24T06:06:06;99966.75;;;14.81;57.64
48424;BME280;34232;42.502;26.014;2023-04-24T06:08:31;99968.09;;;14.85;58.81
48424;BME280;34232;42.502;26.014;2023-04-24T06:10:57;99962.19;;;14.91;58.82
48424;BME280;34232;42.502;26.014;2023-04-24T06:13:22;99964.69;;;14.92;59.52
48424;BME280;34232;42.502;26.014;2023-04-24T06:15:48;99969.56;;;15.05;58.44
48424;BME280;34232;42.502;26.014;2023-04-24T06:18:13;99966.69;;;15.24;58.40
48424;BME280;34232;42.502;26.014;2023-04-24T06:20:38;99958.97;;;15.39;58.24
48424;BME280;34232;42.502;26.014;2023-04-24T06:23:04;99958.22;;;15.63;57.02
48424;BME280;34232;42.502;26.014;2023-04-24T06:25:29;99950.94;;;15.65;54.58
48424;BME280;34232;42.502;26.014;2023-04-24T06:27:54;99952.34;;;15.85;57.06
48424;BME280;34232;42.502;26.014;2023-04-24T06:30:20;99956.97;;;15.91;54.27
48424;BME280;34232;42.502;26.014;2023-04-24T06:32:45;99957.34;;;16.04;54.84
48424;BME280;34232;42.502;26.014;2023-04-24T06:35:10;99963.31;;;16.15;54.11
48424;BME280;34232;42.502;26.014;2023-04-24T06:37:37;99966.34;;;16.20;53.36
48424;BME280;34232;42.502;26.014;2023-04-24T06:40:03;99962.16;;;16.41;53.81
48424;BME280;34232;42.502;26.014;2023-04-24T06:42:29;99965.84;;;16.49;52.41
48424;BME280;34232;42.502;26.014;2023-04-24T06:44:54;99955.03;;;16.58;53.14
48424;BME280;34232;42.502;26.014;2023-04-24T06:47:20;99950.91;;;16.72;52.91
48424;BME280;34232;42.502;26.014;2023-04-24T06:49:45;99957.66;;;16.99;54.60
48424;BME280;34232;42.502;26.014;2023-04-24T06:52:10;99944.94;;;17.25;52.93
48424;BME280;34232;42.502;26.014;2023-04-24T06:54:35;99956.88;;;17.37;51.84
48424;BME280;34232;42.502;26.014;2023-04-24T06:57:01;99958.44;;;17.55;51.11
48424;BME280;34232;42.502;26.014;2023-04-24T06:59:27;99949.78;;;17.61;50.29
48424;BME280;34232;42.502;26.014;2023-04-24T07:01:53;99957.47;;;17.64;50.04
48424;BME280;34232;42.502;26.014;2023-04-24T07:04:18;99947.66;;;17.87;50.09
48424;BME280;34232;42.502;26.014;2023-04-24T07:06:44;99946.72;;;18.03;49.63
48424;BME280;34232;42.502;26.014;2023-04-24T07:09:10;99956.03;;;18.07;49.24
48424;BME280;34232;42.502;26.014;2023-04-24T07:11:36;99950.50;;;18.16;48.74
48424;BME280;34232;42.502;26.014;2023-04-24T07:14:03;99955.69;;;18.33;48.36
48424;BME280;34232;42.502;26.014;2023-04-24T07:16:28;99954.56;;;18.50;48.50
48424;BME280;34232;42.502;26.014;2023-04-24T07:18:53;99957.31;;;18.57;47.97
48424;BME280;34232;42.502;26.014;2023-04-24T07:21:18;99955.56;;;18.49;46.14
48424;BME280;34232;42.502;26.014;2023-04-24T07:23:44;99955.81;;;18.54;45.69
48424;BME280;34232;42.502;26.014;2023-04-24T07:26:09;99950.72;;;18.67;46.65
48424;BME280;34232;42.502;26.014;2023-04-24T07:28:35;99957.66;;;18.76;45.42
48424;BME280;34232;42.502;26.014;2023-04-24T07:31:00;99943.78;;;18.66;45.93
48424;BME280;34232;42.502;26.014;2023-04-24T07:33:25;99943.84;;;18.73;44.76
48424;BME280;34232;42.502;26.014;2023-04-24T07:35:51;99937.88;;;18.71;44.00
48424;BME280;34232;42.502;26.014;2023-04-24T07:38:17;99931.09;;;18.83;45.80
48424;BME280;34232;42.502;26.014;2023-04-24T07:40:45;99938.81;;;18.93;44.50
48424;BME280;34232;42.502;26.014;2023-04-24T07:43:10;99931.53;;;18.86;45.44
48424;BME280;34232;42.502;26.014;2023-04-24T07:45:35;99933.94;;;18.81;44.58
48424;BME280;34232;42.502;26.014;2023-04-24T07:48:02;99938.69;;;18.71;44.52
48424;BME280;34232;42.502;26.014;2023-04-24T07:50:28;99938.91;;;18.84;46.53
48424;BME280;34232;42.502;26.014;2023-04-24T07:52:53;99942.31;;;18.78;43.43
48424;BME280;34232;42.502;26.014;2023-04-24T07:55:18;99937.03;;;18.70;41.59
48424;BME280;34232;42.502;26.014;2023-04-24T07:57:43;99939.63;;;18.41;42.38
48424;BME280;34232;42.502;26.014;2023-04-24T08:00:09;99941.38;;;18.71;43.04
48424;BME280;34232;42.502;26.014;2023-04-24T08:02:35;99940.56;;;19.00;42.17
48424;BME280;34232;42.502;26.014;2023-04-24T08:05:00;99939.84;;;19.21;41.90
48424;BME280;34232;42.502;26.014;2023-04-24T08:07:25;99939.81;;;19.36;42.31
48424;BME280;34232;42.502;26.014;2023-04-24T08:09:50;99937.97;;;19.66;41.18
48424;BME280;34232;42.502;26.014;2023-04-24T08:12:16;99937.13;;;19.80;42.02
48424;BME280;34232;42.502;26.014;2023-04-24T08:14:41;99939.75;;;19.44;42.88
48424;BME280;34232;42.502;26.014;2023-04-24T08:17:06;99952.47;;;18.98;42.92
48424;BME280;34232;42.502;26.014;2023-04-24T08:19:32;99941.44;;;19.15;42.63
48424;BME280;34232;42.502;26.014;2023-04-24T08:21:57;99948.97;;;19.12;42.51
48424;BME280;34232;42.502;26.014;2023-04-24T08:24:22;99939.56;;;19.16;42.80
48424;BME280;34232;42.502;26.014;2023-04-24T08:26:48;99932.56;;;19.44;42.57
48424;BME280;34232;42.502;26.014;2023-04-24T08:29:16;99932.75;;;19.43;43.53
48424;BME280;34232;42.502;26.014;2023-04-24T08:31:42;99925.06;;;19.69;42.29
48424;BME280;34232;42.502;26.014;2023-04-24T08:34:07;99924.41;;;20.03;42.84
48424;BME280;34232;42.502;26.014;2023-04-24T08:36:32;99922.53;;;19.32;44.21
48424;BME280;34232;42.502;26.014;2023-04-24T08:38:58;99925.00;;;19.63;44.26
48424;BME280;34232;42.502;26.014;2023-04-24T08:41:23;99923.75;;;19.80;42.78
48424;BME280;34232;42.502;26.014;2023-04-24T08:43:51;99923.31;;;19.98;42.48
48424;BME280;34232;42.502;26.014;2023-04-24T08:46:16;99918.91;;;19.69;42.90
48424;BME280;34232;42.502;26.014;2023-04-24T08:48:42;99915.56;;;19.67;43.25
48424;BME280;34232;42.502;26.014;2023-04-24T08:51:07;99910.66;;;19.85;43.43
48424;BME280;34232;42.502;26.014;2023-04-24T08:53:33;99905.44;;;19.77;43.21
48424;BME280;34232;42.502;26.014;2023-04-24T08:55:59;99908.81;;;19.49;43.72
48424;BME280;34232;42.502;26.014;2023-04-24T08:58:26;99899.97;;;19.64;44.25
48424;BME280;34232;42.502;26.014;2023-04-24T09:00:53;99903.09;;;19.52;44.06
48424;BME280;34232;42.502;26.014;2023-04-24T09:03:19;99903.47;;;19.49;42.61
48424;BME280;34232;42.502;26.014;2023-04-24T09:05:46;99895.81;;;19.46;43.21
48424;BME280;34232;42.502;26.014;2023-04-24T09:08:15;99892.56;;;19.66;43.24
48424;BME280;34232;42.502;26.014;2023-04-24T09:10:41;99898.75;;;19.37;43.72
48424;BME280;34232;42.502;26.014;2023-04-24T09:13:06;99899.47;;;18.95;44.96
48424;BME280;34232;42.502;26.014;2023-04-24T09:15:34;99893.94;;;19.11;45.43
48424;BME280;34232;42.502;26.014;2023-04-24T09:17:59;99895.38;;;19.28;45.57
48424;BME280;34232;42.502;26.014;2023-04-24T09:20:25;99892.03;;;19.55;44.90
48424;BME280;34232;42.502;26.014;2023-04-24T09:22:53;99886.47;;;19.72;45.05
48424;BME280;34232;42.502;26.014;2023-04-24T09:25:18;99880.66;;;19.68;44.39
48424;BME280;34232;42.502;26.014;2023-04-24T09:27:44;99882.66;;;20.02;44.66
48424;BME280;34232;42.502;26.014;2023-04-24T09:30:10;99884.69;;;20.43;44.26
48424;BME280;34232;42.502;26.014;2023-04-24T09:32:36;99880.28;;;20.63;43.21
48424;BME280;34232;42.502;26.014;2023-04-24T09:35:13;99880.16;;;20.43;42.50
48424;BME280;34232;42.502;26.014;2023-04-24T09:37:40;99879.28;;;20.15;42.57
48424;BME280;34232;42.502;26.014;2023-04-24T09:42:36;99879.72;;;20.40;43.92
48424;BME280;34232;42.502;26.014;2023-04-24T09:45:02;99871.22;;;20.08;42.69
48424;BME280;34232;42.502;26.014;2023-04-24T09:47:27;99874.34;;;19.90;43.49
48424;BME280;34232;42.502;26.014;2023-04-24T09:49:57;99871.97;;;20.02;44.00
48424;BME280;34232;42.502;26.014;2023-04-24T09:52:22;99871.22;;;20.08;43.61
48424;BME280;34232;42.502;26.014;2023-04-24T09:54:53;99865.97;;;20.21;43.42
48424;BME280;34232;42.502;26.014;2023-04-24T09:57:19;99869.41;;;20.37;44.58
48424;BME280;34232;42.502;26.014;2023-04-24T09:59:45;99855.56;;;20.54;42.11
48424;BME280;34232;42.502;26.014;2023-04-24T10:02:17;99849.00;;;20.57;42.62
48424;BME280;34232;42.502;26.014;2023-04-24T10:04:53;99851.03;;;20.55;42.72
48424;BME280;34232;42.502;26.014;2023-04-24T10:07:19;99845.28;;;20.92;42.33
48424;BME280;34232;42.502;26.014;2023-04-24T10:09:44;99840.72;;;21.27;41.64
48424;BME280;34232;42.502;26.014;2023-04-24T10:12:10;99838.34;;;21.65;42.02
48424;BME280;34232;42.502;26.014;2023-04-24T10:14:35;99833.41;;;21.76;41.52
48424;BME280;34232;42.502;26.014;2023-04-24T10:17:01;99837.09;;;21.61;42.46
48424;BME280;34232;42.502;26.014;2023-04-24T10:19:27;99832.56;;;21.62;41.94
48424;BME280;34232;42.502;26.014;2023-04-24T10:21:54;99834.66;;;21.67;41.15
48424;BME280;34232;42.502;26.014;2023-04-24T10:24:21;99824.78;;;21.74;40.71
48424;BME280;34232;42.502;26.014;2023-04-24T10:26:46;99830.56;;;21.84;42.89
48424;BME280;34232;42.502;26.014;2023-04-24T10:29:13;99822.28;;;21.92;41.95
48424;BME280;34232;42.502;26.014;2023-04-24T10:31:40;99825.66;;;22.07;41.24
48424;BME280;34232;42.502;26.014;2023-04-24T10:34:06;99829.72;;;21.96;42.08
48424;BME280;34232;42.502;26.014;2023-04-24T10:36:35;99818.19;;;21.83;40.96
48424;BME280;34232;42.502;26.014;2023-04-24T10:39:02;99817.75;;;21.92;42.46
48424;BME280;34232;42.502;26.014;2023-04-24T10:41:29;99823.16;;;22.32;39.67
48424;BME280;34232;42.502;26.014;2023-04-24T10:44:08;99828.06;;;22.61;39.31
48424;BME280;34232;42.502;26.014;2023-04-24T10:46:34;99821.22;;;22.85;39.13
48424;BME280;34232;42.502;26.014;2023-04-24T10:49:03;99811.16;;;22.48;40.69
48424;BME280;34232;42.502;26.014;2023-04-24T10:51:45;99816.56;;;22.08;41.73
48424;BME280;34232;42.502;26.014;2023-04-24T10:59:46;99796.75;;;21.89;40.53
48424;BME280;34232;42.502;26.014;2023-04-24T11:02:13;99794.69;;;21.91;41.40
48424;BME280;34232;42.502;26.014;2023-04-24T11:04:39;99799.66;;;22.01;41.24
48424;BME280;34232;42.502;26.014;2023-04-24T11:07:04;99793.41;;;21.54;40.59
48424;BME280;34232;42.502;26.014;2023-04-24T11:09:30;99792.53;;;21.34;41.40
48424;BME280;34232;42.502;26.014;2023-04-24T11:12:08;99788.69;;;21.56;41.42
48424;BME280;34232;42.502;26.014;2023-04-24T11:17:33;99781.06;;;21.67;41.34
48424;BME280;34232;42.502;26.014;2023-04-24T11:20:08;99775.28;;;21.83;40.50
48424;BME280;34232;42.502;26.014;2023-04-24T11:22:35;99769.94;;;21.70;41.65
48424;BME280;34232;42.502;26.014;2023-04-24T11:25:00;99766.63;;;21.81;41.41
48424;BME280;34232;42.502;26.014;2023-04-24T11:27:29;99766.63;;;21.68;41.93
48424;BME280;34232;42.502;26.014;2023-04-24T11:32:26;99758.41;;;21.89;42.50
48424;BME280;34232;42.502;26.014;2023-04-24T11:34:53;99757.97;;;22.18;42.37
48424;BME280;34232;42.502;26.014;2023-04-24T11:37:19;99762.09;;;21.88;41.88
48424;BME280;34232;42.502;26.014;2023-04-24T11:39:44;99753.44;;;21.86;41.89
48424;BME280;34232;42.502;26.014;2023-04-24T11:42:10;99750.75;;;22.12;41.65
48424;BME280;34232;42.502;26.014;2023-04-24T11:44:35;99747.25;;;22.18;42.00
48424;BME280;34232;42.502;26.014;2023-04-24T11:47:05;99751.78;;;22.11;42.18
48424;BME280;34232;42.502;26.014;2023-04-24T11:49:32;99746.66;;;22.03;42.18
48424;BME280;34232;42.502;26.014;2023-04-24T11:51:57;99744.78;;;22.10;41.82
48424;BME280;34232;42.502;26.014;2023-04-24T11:54:22;99736.75;;;22.10;41.42
48424;BME280;34232;42.502;26.014;2023-04-24T11:56:48;99735.72;;;22.11;41.12
48424;BME280;34232;42.502;26.014;2023-04-24T11:59:14;99730.72;;;22.34;42.12
48424;BME280;34232;42.502;26.014;2023-04-24T12:01:45;99732.31;;;22.55;41.33
48424;BME280;34232;42.502;26.014;2023-04-24T12:04:11;99727.31;;;22.59;40.70
48424;BME280;34232;42.502;26.014;2023-04-24T12:06:36;99719.47;;;22.57;42.11
48424;BME280;34232;42.502;26.014;2023-04-24T12:11:27;99717.88;;;22.50;39.92
48424;BME280;34232;42.502;26.014;2023-04-24T12:13:52;99712.94;;;22.47;40.95
48424;BME280;34232;42.502;26.014;2023-04-24T12:16:18;99699.88;;;22.63;41.10
48424;BME280;34232;42.502;26.014;2023-04-24T12:18:44;99697.50;;;22.36;39.79
48424;BME280;34232;42.502;26.014;2023-04-24T12:21:17;99706.03;;;22.06;40.93
48424;BME280;34232;42.502;26.014;2023-04-24T12:23:43;99701.50;;;21.87;41.43
48424;BME280;34232;42.502;26.014;2023-04-24T12:26:10;99701.06;;;21.77;40.39
48424;BME280;34232;42.502;26.014;2023-04-24T12:28:36;99692.41;;;21.88;40.74
48424;BME280;34232;42.502;26.014;2023-04-24T12:31:01;99682.09;;;21.98;41.04
48424;BME280;34232;42.502;26.014;2023-04-24T12:33:27;99681.06;;;21.99;41.41
48424;BME280;34232;42.502;26.014;2023-04-24T12:35:52;99672.81;;;21.94;41.00
48424;BME280;34232;42.502;26.014;2023-04-24T12:38:24;99673.41;;;22.09;40.44
48424;BME280;34232;42.502;26.014;2023-04-24T12:41:01;99664.59;;;22.02;40.67
48424;BME280;34232;42.502;26.014;2023-04-24T12:43:26;99661.44;;;22.18;39.83
48424;BME280;34232;42.502;26.014;2023-04-24T12:45:52;99654.38;;;22.30;41.03
48424;BME280;34232;42.502;26.014;2023-04-24T12:48:17;99650.00;;;22.43;39.52
48424;BME280;34232;42.502;26.014;2023-04-24T12:50:43;99639.47;;;22.48;40.04
48424;BME280;34232;42.502;26.014;2023-04-24T12:53:08;99638.97;;;22.57;41.79
48424;BME280;34232;42.502;26.014;2023-04-24T12:55:34;99643.28;;;22.20;39.15
48424;BME280;34232;42.502;26.014;2023-04-24T12:57:59;99643.28;;;22.20;39.04
48424;BME280;34232;42.502;26.014;2023-04-24T13:00:24;99637.88;;;22.27;38.64
48424;BME280;34232;42.502;26.014;2023-04-24T13:02:50;99628.03;;;22.21;40.09